Time;durP1;ratioP1;P1;durP2;ratioP2;P2;SDS_P1;SDS_P2;PMS_P1;PMS_P2;Temp;Humidity;BMP_temperature;BMP_pressure;BME280_temperature;BME280_humidity;BME280_pressure;Samples;Min_cycle;Max_cycle;Signal;HPM_P1;HPM_P2
2021/03/17 00:01:22;;;;;;;0.55;0.55;;;5.20;96.30;;;8.14;84.34;102473.59;4970792;28;98118;-70
2021/03/17 00:04:09;;;;;;;0.10;0.10;;;5.20;96.30;;;8.15;85.51;102477.88;4970682;28;98411;-70
2021/03/17 00:06:55;;;;;;;0.10;0.10;;;5.30;96.30;;;8.16;84.72;102471.47;4969558;28;96710;-70
2021/03/17 00:09:42;;;;;;;0.10;0.10;;;5.20;96.30;;;8.14;84.91;102476.25;4970219;28;97620;-70
2021/03/17 00:12:32;;;;;;;0.10;0.10;;;5.30;96.30;;;8.10;84.72;102477.78;4969120;28;96971;-70
2021/03/17 00:15:20;;;;;;;0.20;0.20;;;5.30;96.30;;;8.11;85.30;102479.41;4969366;28;97348;-70
2021/03/17 00:18:09;;;;;;;0.20;0.20;;;5.30;96.30;;;8.11;85.02;102476.75;4969462;28;96876;-70
2021/03/17 00:20:57;;;;;;;0.10;0.10;;;5.30;96.30;;;8.10;85.22;102476.97;4969116;28;97249;-70
2021/03/17 00:23:43;;;;;;;0.10;0.10;;;5.30;96.30;;;8.10;85.11;102477.78;4970789;28;98141;-70
2021/03/17 00:26:30;;;;;;;0.10;0.10;;;5.30;96.30;;;8.11;84.98;102475.91;4968156;28;97910;-70
2021/03/17 00:29:17;;;;;;;0.30;0.30;;;5.30;96.30;;;8.10;84.65;102483.09;4969334;28;96775;-70
2021/03/17 00:32:06;;;;;;;0.20;0.20;;;5.30;96.30;;;8.10;85.22;102483.09;4969223;28;97565;-70
2021/03/17 00:34:53;;;;;;;0.10;0.10;;;5.30;96.30;;;8.06;85.30;102492.66;4966864;28;96681;-70
2021/03/17 00:37:40;;;;;;;0.10;0.10;;;5.30;96.30;;;8.08;85.04;102498.56;4969833;28;97708;-70
2021/03/17 00:40:31;;;;;;;0.20;0.20;;;5.30;96.30;;;8.05;85.17;102491.03;4968508;28;97157;-70
2021/03/17 00:43:17;;;;;;;0.10;0.10;;;5.30;96.30;;;8.08;84.86;102497.78;4970301;28;96728;-70
2021/03/17 00:46:05;;;;;;;0.10;0.10;;;5.30;96.30;;;8.05;85.08;102490.25;4968399;28;96930;-70
2021/03/17 00:48:34;;;;;;;0.10;0.10;;;5.20;96.30;;;8.04;85.16;102494.75;4952460;28;97737;-70
2021/03/17 00:51:16;;;;;;;0.10;0.10;;;5.30;96.30;;;8.02;85.23;102491.53;4968716;28;96861;-70
2021/03/17 00:54:05;;;;;;;0.00;0.00;;;5.30;96.30;;;8.04;85.60;102499.31;4968773;28;97104;-70
2021/03/17 00:56:35;;;;;;;0.10;0.10;;;5.20;96.30;;;8.01;85.46;102495.25;4966909;28;98005;-70
2021/03/17 00:59:03;;;;;;;0.00;0.00;;;5.20;96.30;;;8.00;84.81;102503.50;4968983;28;97883;-70
2021/03/17 01:01:31;;;;;;;0.35;0.35;;;5.20;96.30;;;8.00;85.18;102501.63;4969476;28;96836;-70
2021/03/17 01:03:59;;;;;;;0.30;0.30;;;5.30;96.30;;;7.98;85.42;102500.28;4969684;28;96959;-70
2021/03/17 01:06:31;;;;;;;0.30;0.30;;;5.20;96.30;;;7.99;85.33;102502.69;4969636;28;98488;-70
2021/03/17 01:08:59;;;;;;;0.10;0.10;;;5.20;96.30;;;8.00;85.32;102495.50;4966638;28;97738;-68
2021/03/17 01:11:31;;;;;;;0.20;0.20;;;5.20;96.30;;;7.98;85.39;102497.59;4970503;28;96818;-70
2021/03/17 01:13:59;;;;;;;0.20;0.20;;;5.20;96.30;;;7.98;85.15;102503.75;4966259;28;96996;-70
2021/03/17 01:16:30;;;;;;;0.10;0.10;;;5.20;96.30;;;7.95;85.30;102495.41;4968028;28;97898;-70
2021/03/17 01:18:58;;;;;;;0.30;0.30;;;5.20;96.30;;;7.93;85.10;102501.00;4970498;28;97659;-70
2021/03/17 01:21:26;;;;;;;0.10;0.10;;;5.20;96.30;;;7.96;85.01;102497.03;4968951;28;97321;-70
2021/03/17 01:23:53;;;;;;;7.68;2.30;;;5.20;96.30;;;7.96;85.35;102497.84;4970888;28;96919;-70
2021/03/17 01:26:21;;;;;;;0.10;0.10;;;5.20;96.30;;;7.96;84.89;102497.03;4968564;28;99095;-70
2021/03/17 01:28:49;;;;;;;0.77;0.77;;;5.20;96.30;;;7.97;85.01;102504.00;4968004;28;98018;-70
2021/03/17 01:31:17;;;;;;;0.10;0.10;;;5.20;96.30;;;7.94;85.72;102494.59;4967868;28;97228;-70
2021/03/17 01:33:45;;;;;;;0.40;0.40;;;5.20;96.30;;;7.96;85.35;102497.03;4967279;28;97282;-70
2021/03/17 01:36:13;;;;;;;0.25;0.25;;;5.20;96.40;;;7.88;85.48;102498.25;4969074;28;99263;-70
2021/03/17 01:38:40;;;;;;;0.10;0.10;;;5.20;96.40;;;7.91;85.42;102499.59;4967691;28;97854;-70
2021/03/17 01:41:08;;;;;;;0.25;0.25;;;5.20;96.40;;;7.87;85.69;102503.81;4969497;28;97040;-70
2021/03/17 01:43:36;;;;;;;0.20;0.20;;;5.20;96.40;;;7.91;85.50;102503.09;4983040;28;96975;-70
2021/03/17 01:46:05;;;;;;;0.13;0.13;;;5.20;96.40;;;7.90;85.31;102495.31;4972405;28;98867;-70
2021/03/17 01:48:33;;;;;;;0.47;0.47;;;5.10;96.40;;;7.91;85.06;102503.09;4971958;28;97675;-70
2021/03/17 01:51:02;;;;;;;0.20;0.20;;;5.10;96.40;;;7.92;85.09;102507.38;4972885;28;96872;-70
2021/03/17 01:53:35;;;;;;;0.10;0.10;;;5.20;96.40;;;7.94;85.74;102504.44;4971537;28;96886;-70
2021/03/17 01:56:06;;;;;;;0.63;0.63;;;5.10;96.40;;;7.93;85.50;102505.50;4974093;28;96892;-70
2021/03/17 01:58:37;;;;;;;0.10;0.10;;;5.10;96.40;;;7.88;85.13;102513.44;4971506;28;97985;-70
2021/03/17 02:01:07;;;;;;;0.17;0.17;;;5.10;96.40;;;7.88;84.87;102510.75;4974851;28;96761;-70
2021/03/17 02:03:35;;;;;;;0.10;0.10;;;5.10;96.30;;;7.85;85.29;102505.91;4974763;28;96681;-70
2021/03/17 02:06:05;;;;;;;0.10;0.10;;;5.10;96.30;;;7.87;85.13;102511.81;4974014;28;96894;-70
2021/03/17 02:08:38;;;;;;;0.32;0.32;;;5.10;96.40;;;7.90;85.13;102508.66;4971495;28;97690;-70
2021/03/17 02:11:06;;;;;;;;;;;5.10;96.40;;;7.90;84.96;102508.66;4973096;28;96996;-70
2021/03/17 02:14:14;;;;;;;0.08;0.08;;;5.10;96.40;;;7.91;85.46;102515.59;4972599;28;96872;-70
2021/03/17 02:16:49;;;;;;;0.10;0.10;;;5.10;96.40;;;7.90;84.76;102512.16;4971070;28;96805;-70
2021/03/17 02:20:29;;;;;;;0.10;0.10;;;5.10;96.40;;;7.91;84.86;102512.94;4970505;28;96874;-70
2021/03/17 02:23:06;;;;;;;0.10;0.10;;;5.10;96.40;;;7.90;84.99;102512.16;4970678;28;97232;-70
2021/03/17 02:26:17;;;;;;;0.10;0.10;;;5.10;96.40;;;7.86;84.95;102516.34;4971161;28;97307;-70
2021/03/17 02:29:17;;;;;;;0.20;0.20;;;5.10;96.40;;;7.84;84.67;102515.78;4972253;28;97515;-70
2021/03/17 02:32:07;;;;;;;4.38;0.63;;;5.10;96.40;;;7.82;84.94;102512.53;4971928;28;97839;-70
2021/03/17 02:34:44;;;;;;;0.17;0.17;;;5.00;96.40;;;7.81;85.46;102505.59;4970013;28;96756;-70
2021/03/17 02:37:19;;;;;;;0.17;0.17;;;5.10;96.40;;;7.81;85.17;102505.59;4972876;28;97613;-70
2021/03/17 02:39:58;;;;;;;0.15;0.15;;;5.00;96.40;;;7.85;85.29;102501.38;4970229;28;97901;-70
2021/03/17 02:42:35;;;;;;;0.10;0.10;;;5.10;96.40;;;7.89;84.99;102499.03;4970859;28;97639;-70
2021/03/17 02:45:10;;;;;;;0.10;0.10;;;5.10;96.40;;;7.85;85.67;102501.38;4971623;28;96810;-70
2021/03/17 02:47:50;;;;;;;0.10;0.10;;;5.10;96.40;;;7.82;85.27;102488.53;4970249;28;96867;-70
2021/03/17 02:50:21;;;;;;;0.35;0.35;;;5.10;96.40;;;7.84;85.84;102496.28;4969990;28;97813;-70
2021/03/17 02:52:55;;;;;;;0.10;0.10;;;5.10;96.50;;;7.84;85.84;102489.09;4971704;28;97934;-70
2021/03/17 02:55:29;;;;;;;0.38;0.25;;;5.10;96.50;;;7.83;85.75;102487.47;4970470;28;97244;-70
2021/03/17 02:57:59;;;;;;;0.52;0.52;;;5.10;96.50;;;7.84;85.25;102499.78;4967530;28;96911;-70
2021/03/17 03:00:31;;;;;;;;;;;5.10;96.50;;;7.86;85.44;102488.84;4972440;28;99373;-70
2021/03/17 03:03:03;;;;;;;0.35;0.35;;;5.10;96.50;;;7.85;85.41;102485.38;4970768;28;97926;-70
2021/03/17 03:05:34;;;;;;;0.17;0.17;;;5.10;96.50;;;7.80;85.78;102487.94;4970403;28;96871;-70
2021/03/17 03:08:05;;;;;;;0.10;0.10;;;5.10;96.50;;;7.78;85.76;102487.38;4967798;28;97263;-70
2021/03/17 03:10:36;;;;;;;0.22;0.20;;;5.10;96.50;;;7.81;85.55;102486.91;4971307;28;99387;-70
2021/03/17 03:13:06;;;;;;;0.10;0.10;;;5.10;96.50;;;7.79;85.49;102478.31;4969910;28;97704;-70
2021/03/17 03:15:37;;;;;;;0.10;0.10;;;5.10;96.50;;;7.80;85.28;102490.59;4970155;28;96821;-70
2021/03/17 03:18:09;;;;;;;0.10;0.10;;;5.10;96.50;;;7.82;85.02;102488.53;4969968;28;96829;-70
2021/03/17 03:20:40;;;;;;;0.10;0.10;;;5.10;96.50;;;7.83;85.22;102492.81;4970163;28;97868;-70
2021/03/17 03:23:08;;;;;;;0.47;0.47;;;5.10;96.50;;;7.82;84.81;102488.53;4970658;28;97964;-70
2021/03/17 03:25:36;;;;;;;0.10;0.10;;;5.10;96.50;;;7.83;85.41;102487.47;4971675;28;97202;-70
2021/03/17 03:28:12;;;;;;;1.60;1.10;;;5.10;96.50;;;7.82;85.42;102480.53;4984993;28;96881;-70
2021/03/17 03:30:45;;;;;;;0.17;0.17;;;5.10;96.50;;;7.84;85.24;102482.94;4970394;28;97745;-70
2021/03/17 03:33:13;;;;;;;0.20;0.20;;;5.10;96.50;;;7.78;85.56;102490.03;4971076;28;97068;-70
2021/03/17 03:35:43;;;;;;;0.10;0.10;;;5.10;96.50;;;7.80;85.80;102487.13;4971882;28;97085;-70
2021/03/17 03:38:12;;;;;;;0.17;0.17;;;5.10;96.50;;;7.79;85.49;102490.88;4970588;28;97209;-70
2021/03/17 03:40:42;;;;;;;0.10;0.10;;;5.10;96.50;;;7.83;85.11;102494.66;4969337;28;98864;-70
2021/03/17 03:43:13;;;;;;;0.20;0.20;;;5.00;96.50;;;7.83;85.54;102490.16;4970872;28;97723;-70
2021/03/17 03:45:42;;;;;;;0.10;0.10;;;5.10;96.50;;;7.84;85.54;102489.09;4971904;28;96760;-70
2021/03/17 03:48:11;;;;;;;0.10;0.10;;;5.10;96.70;;;7.80;85.53;102493.28;4968908;28;96832;-70
2021/03/17 03:50:45;;;;;;;0.15;0.15;;;5.00;96.50;;;7.78;85.59;102505.25;4972355;28;96855;-70
2021/03/17 03:53:39;;;;;;;0.28;0.28;;;5.10;96.80;;;7.74;85.61;102510.25;4972648;28;96858;-69
2021/03/17 03:56:13;;;;;;;0.20;0.20;;;5.10;96.50;;;7.71;85.34;102502.72;4968889;28;97158;-69
2021/03/17 03:58:47;;;;;;;0.17;0.17;;;5.00;96.40;;;7.63;84.97;102509.50;4970919;28;97740;-69
2021/03/17 04:01:24;;;;;;;0.20;0.20;;;5.00;96.40;;;7.57;85.22;102508.59;4969508;28;96933;-69
2021/03/17 04:04:05;;;;;;;0.20;0.20;;;5.00;96.40;;;7.49;85.27;102511.66;4968564;28;96820;-69
2021/03/17 04:06:35;;;;;;;2.83;2.28;;;4.90;96.30;;;7.42;84.99;102510.97;4970430;28;96791;-69
2021/03/17 04:09:07;;;;;;;0.10;0.10;;;4.90;96.30;;;7.32;84.37;102520.63;4971178;28;96786;-69
2021/03/17 04:11:39;;;;;;;0.15;0.15;;;4.80;96.30;;;7.26;84.13;102516.25;4969741;28;97381;-69
2021/03/17 04:14:09;;;;;;;0.10;0.10;;;4.80;96.20;;;7.19;84.88;102526.22;4969117;28;97896;-69
2021/03/17 04:17:03;;;;;;;0.10;0.10;;;4.70;96.20;;;7.22;85.34;102547.09;4969394;28;96799;-69
2021/03/17 04:19:35;;;;;;;0.10;0.10;;;4.70;96.20;;;7.26;85.68;102534.91;4970145;28;97036;-69
2021/03/17 04:22:07;;;;;;;0.15;0.15;;;4.60;96.20;;;7.29;85.37;102545.09;4970796;28;97432;-68
2021/03/17 04:24:38;;;;;;;0.10;0.10;;;4.60;96.20;;;7.29;85.06;102539.78;4969854;28;97854;-67
2021/03/17 04:27:08;;;;;;;0.20;0.20;;;4.60;96.30;;;7.31;85.69;102540.34;4968740;28;96793;-67
2021/03/17 04:29:40;;;;;;;0.25;0.25;;;4.60;96.30;;;7.32;85.05;102540.09;4969354;28;96857;-67
2021/03/17 04:32:10;;;;;;;;;;;4.60;96.30;;;7.31;85.46;102541.13;4971636;28;98437;-67
2021/03/17 04:34:40;;;;;;;0.10;0.10;;;4.60;96.60;;;7.32;84.87;102542.75;4951982;28;97053;-67
2021/03/17 04:37:10;;;;;;;0.30;0.30;;;4.60;96.30;;;7.33;85.24;102543.59;4968160;28;96786;-67
2021/03/17 04:39:41;;;;;;;0.10;0.10;;;4.60;96.40;;;7.34;85.47;102540.66;4970070;28;96753;-67
2021/03/17 04:42:11;;;;;;;0.10;0.10;;;4.70;96.40;;;7.31;84.83;102543.81;4953663;28;98257;-67
2021/03/17 04:44:40;;;;;;;0.10;0.10;;;4.60;96.40;;;7.24;84.98;102547.66;4970450;28;97862;-67
2021/03/17 04:47:22;;;;;;;0.43;0.43;;;4.60;96.40;;;7.15;83.87;102546.41;4969868;28;96784;-67
2021/03/17 04:49:53;;;;;;;0.10;0.10;;;4.60;96.30;;;7.03;84.11;102542.94;4969099;28;97041;-67
2021/03/17 04:52:24;;;;;;;0.10;0.10;;;4.50;96.20;;;7.00;84.44;102538.09;4969116;28;96667;-67
2021/03/17 04:54:53;;;;;;;0.47;0.47;;;4.40;96.10;;;6.98;84.46;102540.97;4969439;28;98404;-67
2021/03/17 04:57:26;;;;;;;0.10;0.10;;;4.40;96.10;;;6.95;84.48;102541.44;4970189;28;96766;-67
2021/03/17 04:59:56;;;;;;;0.10;0.10;;;4.40;96.10;;;6.91;84.23;102542.16;4967763;28;97002;-67
2021/03/17 05:02:28;;;;;;;0.10;0.10;;;4.30;96.00;;;6.81;83.26;102533.94;4968854;28;98043;-67
2021/03/17 05:04:58;;;;;;;0.10;0.10;;;4.30;95.90;;;6.73;83.91;102535.09;4968644;28;97138;-67
2021/03/17 05:07:28;;;;;;;0.10;0.10;;;4.20;95.80;;;6.67;83.70;102533.34;4968763;28;96903;-67
2021/03/17 05:09:57;;;;;;;0.10;0.10;;;4.10;95.70;;;6.60;83.41;102542.50;4969110;28;96905;-67
2021/03/17 05:12:25;;;;;;;0.10;0.10;;;4.10;95.60;;;6.53;82.75;102537.31;4964084;28;98898;-67
2021/03/17 05:14:54;;;;;;;0.13;0.13;;;4.00;95.50;;;6.48;83.78;102544.34;4967513;28;96862;-67
2021/03/17 05:17:44;;;;;;;0.03;0.03;;;4.00;95.50;;;6.38;82.76;102554.78;4970151;28;96753;-68
2021/03/17 05:20:19;;;;;;;0.10;0.10;;;3.90;95.40;;;6.31;83.26;102554.88;4971532;28;97265;-69
2021/03/17 05:22:50;;;;;;;0.10;0.10;;;3.80;95.30;;;6.21;82.85;102559.94;4972503;28;98035;-67
2021/03/17 05:25:21;;;;;;;0.10;0.10;;;3.70;95.30;;;6.14;83.34;102564.53;4970622;28;98172;-68
2021/03/17 05:27:53;;;;;;;0.10;0.10;;;3.60;95.20;;;6.15;83.47;102565.38;4972535;28;96825;-67
2021/03/17 05:30:24;;;;;;;0.83;0.50;;;3.60;95.20;;;6.17;83.20;102557.97;4972879;28;97205;-70
2021/03/17 05:32:56;;;;;;;0.20;0.20;;;3.60;95.40;;;6.24;84.06;102564.81;4972069;28;97858;-70
2021/03/17 05:35:25;;;;;;;0.05;0.05;;;3.50;95.50;;;6.34;83.92;102566.91;4972587;28;98468;-68
2021/03/17 05:37:54;;;;;;;0.20;0.20;;;3.60;95.70;;;6.41;84.54;102564.97;4968209;28;97243;-68
2021/03/17 05:40:22;;;;;;;0.13;0.13;;;3.60;95.80;;;6.44;84.69;102551.97;4972188;28;97209;-68
2021/03/17 05:42:50;;;;;;;0.25;0.25;;;3.60;95.90;;;6.50;84.22;102563.56;4970326;28;96965;-68
2021/03/17 05:45:20;;;;;;;0.10;0.10;;;3.70;96.00;;;6.54;83.98;102564.72;4973070;28;98451;-68
2021/03/17 05:48:09;;;;;;;0.30;0.30;;;3.70;96.00;;;6.52;84.56;102556.16;4971265;28;96822;-68
2021/03/17 05:50:38;;;;;;;0.10;0.10;;;3.70;96.00;;;6.53;84.29;102565.78;4971585;28;96941;-68
2021/03/17 05:53:08;;;;;;;0.10;0.10;;;3.80;96.10;;;6.50;84.29;102563.56;4971859;28;97053;-68
2021/03/17 05:55:37;;;;;;;0.40;0.40;;;3.80;96.10;;;6.49;84.60;102568.09;4970595;28;96865;-68
2021/03/17 05:58:07;;;;;;;0.10;0.10;;;3.80;96.10;;;6.51;85.17;102574.00;4970977;28;97230;-68
2021/03/17 06:00:34;;;;;;;0.10;0.10;;;3.80;96.10;;;6.51;85.11;102566.00;4970136;28;97054;-68
2021/03/17 06:03:05;;;;;;;0.20;0.20;;;3.80;96.10;;;6.58;85.16;102569.38;4970767;28;96727;-68
2021/03/17 06:05:33;;;;;;;0.10;0.10;;;3.80;96.10;;;6.65;84.95;102577.25;4972570;28;97869;-70
2021/03/17 06:08:07;;;;;;;0.10;0.10;;;3.90;96.20;;;6.67;85.04;102570.66;4970463;28;97215;-68
2021/03/17 06:10:36;;;;;;;0.10;0.10;;;3.90;96.20;;;6.70;84.81;102572.03;4971788;28;96810;-68
2021/03/17 06:13:11;;;;;;;0.17;0.17;;;3.90;96.20;;;6.76;84.22;102574.59;4971336;28;97896;-68
2021/03/17 06:15:43;;;;;;;0.10;0.10;;;4.00;96.30;;;6.82;84.93;102572.84;4973874;28;96797;-68
2021/03/17 06:18:37;;;;;;;0.15;0.15;;;3.90;96.20;;;6.88;85.10;102571.91;4972887;28;97211;-69
2021/03/17 06:21:06;;;;;;;9.73;1.75;;;4.00;96.30;;;6.94;84.26;102581.66;4985178;28;96871;-68
2021/03/17 06:23:35;;;;;;;0.13;0.13;;;4.10;96.30;;;7.04;83.82;102585.34;4969726;28;97806;-68
2021/03/17 06:26:07;;;;;;;0.20;0.20;;;4.10;96.20;;;7.21;84.41;102577.47;4970965;28;97729;-69
2021/03/17 06:28:35;;;;;;;0.20;0.20;;;4.20;96.20;;;7.33;84.26;102587.03;4970095;28;96887;-69
2021/03/17 06:31:07;;;;;;;0.10;0.10;;;4.30;96.20;;;7.34;83.91;102590.53;4968964;28;97274;-70
2021/03/17 06:33:35;;;;;;;0.10;0.10;;;4.40;96.20;;;7.31;84.12;102578.47;4971477;28;97090;-70
2021/03/17 06:36:16;;;;;;;0.10;0.10;;;4.40;96.10;;;7.37;84.10;102582.06;4969693;28;98589;-70
2021/03/17 06:38:47;;;;;;;0.10;0.10;;;4.40;96.10;;;7.45;83.62;102571.00;4971012;28;96876;-68
2021/03/17 06:41:18;;;;;;;0.10;0.10;;;4.50;96.30;;;7.50;83.70;102579.09;4955248;28;96874;-70
2021/03/17 06:43:49;;;;;;;0.10;0.10;;;4.50;96.00;;;7.55;84.06;102581.91;4971122;28;97862;-70
2021/03/17 06:46:20;;;;;;;0.10;0.10;;;4.60;96.00;;;7.53;84.21;102578.66;4971493;28;96770;-70
2021/03/17 06:49:06;;;;;;;0.20;0.20;;;4.60;96.00;;;7.60;84.07;102582.78;4971190;28;96869;-70
2021/03/17 06:51:33;;;;;;;0.17;0.17;;;4.60;96.00;;;7.65;84.15;102584.75;4970016;28;96881;-70
2021/03/17 06:54:04;;;;;;;0.10;0.10;;;4.70;96.10;;;7.71;84.07;102588.09;4972088;28;97926;-70
2021/03/17 06:56:37;;;;;;;0.10;0.10;;;4.70;96.00;;;7.75;83.60;102573.22;4970189;28;97700;-70
2021/03/17 06:59:08;;;;;;;0.10;0.10;;;4.80;96.00;;;7.76;83.60;102574.84;4969588;28;96903;-69
2021/03/17 07:01:40;;;;;;;0.25;0.25;;;4.80;96.00;;;7.79;83.70;102570.91;4969963;28;97202;-69
2021/03/17 07:04:12;;;;;;;0.10;0.10;;;4.80;96.00;;;7.87;83.90;102582.00;4969470;28;97961;-70
2021/03/17 07:06:43;;;;;;;0.60;0.60;;;4.80;96.00;;;7.85;83.61;102578.78;4968222;28;96802;-70
2021/03/17 07:09:28;;;;;;;0.30;0.30;;;4.90;96.00;;;7.76;84.61;102580.19;5052417;27;96686;-69
2021/03/17 07:12:08;;;;;;;0.10;0.10;;;4.90;96.00;;;7.73;84.45;102586.00;5031479;27;96908;-70
2021/03/17 07:14:39;;;;;;;0.10;0.10;;;4.90;96.00;;;7.69;84.03;102586.72;5023000;27;97874;-70
2021/03/17 07:17:23;;;;;;;0.10;0.10;;;4.90;96.00;;;7.68;84.01;102593.91;5018309;28;97123;-70
2021/03/17 07:19:52;;;;;;;0.10;0.10;;;4.80;96.00;;;7.62;84.76;102598.56;5026734;28;96889;-70
2021/03/17 07:22:20;;;;;;;0.60;0.35;;;4.80;96.00;;;7.55;83.83;102601.38;5027493;27;97611;-70
2021/03/17 07:24:56;;;;;;;1.23;1.20;;;4.80;96.00;;;7.55;83.71;102595.25;5019986;27;97901;-69
2021/03/17 07:27:29;;;;;;;0.10;0.10;;;4.80;95.90;;;7.93;82.92;102598.91;5019404;27;97408;-69
2021/03/17 07:30:12;;;;;;;0.20;0.20;;;4.80;95.90;;;8.78;81.48;102598.56;5010672;28;97444;-69
2021/03/17 07:32:59;;;;;;;0.10;0.10;;;5.10;95.90;;;10.05;78.18;102590.03;5019472;28;97534;-69
2021/03/17 07:35:30;;;;;;;0.10;0.10;;;5.50;95.70;;;10.39;77.14;102596.78;5015069;28;97205;-69
2021/03/17 07:38:08;;;;;;;0.50;0.50;;;5.90;95.40;;;10.86;75.31;102600.38;5024234;27;96903;-68
2021/03/17 07:40:40;;;;;;;0.10;0.10;;;6.30;95.00;;;11.14;74.82;102601.63;5025711;28;97835;-69
2021/03/17 07:43:10;;;;;;;;;;;6.60;94.60;;;11.71;73.80;102601.66;5040131;27;97399;-69
2021/03/17 07:45:39;;;;;;;0.10;0.10;;;6.90;94.30;;;11.26;75.57;102596.88;5028212;27;97696;-69
2021/03/17 07:48:11;;;;;;;0.13;0.13;;;7.10;94.00;;;11.09;75.96;102582.00;5025916;27;97877;-69
2021/03/17 07:50:42;;;;;;;0.10;0.10;;;7.20;93.90;;;11.09;77.26;102595.44;5026212;27;97208;-69
2021/03/17 07:53:21;;;;;;;0.10;0.10;;;7.40;93.90;;;11.07;77.39;102595.66;4993876;28;97423;-69
2021/03/17 07:55:55;;;;;;;0.10;0.10;;;7.40;93.80;;;10.96;77.97;102587.84;5025023;28;97986;-69
2021/03/17 07:58:24;;;;;;;0.10;0.10;;;7.50;93.80;;;10.93;77.73;102583.81;5011116;28;98109;-69
2021/03/17 08:00:53;;;;;;;3.63;1.95;;;7.50;93.70;;;10.96;78.33;102594.00;5028400;27;97197;-69
2021/03/17 08:03:25;;;;;;;0.22;0.22;;;7.60;93.70;;;11.16;77.88;102598.69;5023235;27;96950;-69
2021/03/17 08:05:53;;;;;;;0.10;0.10;;;7.70;93.70;;;11.09;78.35;102600.78;5020326;28;97484;-69
2021/03/17 08:08:23;;;;;;;0.10;0.10;;;7.70;93.60;;;11.03;78.11;102610.66;5018303;27;97677;-69
2021/03/17 08:10:53;;;;;;;0.10;0.10;;;7.80;93.60;;;10.99;78.92;102612.25;5026908;27;97422;-69
2021/03/17 08:13:21;;;;;;;0.00;0.00;;;7.80;93.50;;;10.82;79.52;102612.69;5020916;28;96865;-69
2021/03/17 08:15:49;;;;;;;0.10;0.10;;;7.70;93.60;;;10.72;79.88;102613.41;5015580;28;96720;-69
2021/03/17 08:18:44;;;;;;;0.10;0.10;;;7.70;93.60;;;10.53;80.50;102619.44;5021587;28;97712;-69
2021/03/17 08:21:15;;;;;;;0.10;0.10;;;7.60;93.60;;;10.29;80.70;102624.28;5014164;28;97215;-69
2021/03/17 08:23:50;;;;;;;0.30;0.30;;;7.50;93.70;;;9.98;81.86;102625.00;5016056;28;96673;-69
2021/03/17 08:26:45;;;;;;;0.03;0.03;;;7.40;93.80;;;9.99;81.76;102628.50;5013753;28;96787;-69
2021/03/17 08:29:16;;;;;;;0.00;0.00;;;7.20;94.00;;;9.79;82.22;102621.06;5016209;28;97594;-69
2021/03/17 08:31:53;;;;;;;1.30;0.30;;;7.10;94.10;;;9.56;82.71;102628.53;5015598;28;96788;-69
2021/03/17 08:34:31;;;;;;;0.10;0.10;;;7.00;94.20;;;9.45;82.76;102634.81;5016358;28;96974;-69
2021/03/17 08:37:05;;;;;;;0.08;0.08;;;6.80;94.40;;;9.54;82.80;102633.31;5010985;28;97024;-69
2021/03/17 08:39:46;;;;;;;0.00;0.00;;;6.80;94.50;;;9.63;82.19;102631.84;5011213;28;97747;-69
2021/03/17 08:42:31;;;;;;;0.68;0.68;;;6.80;94.60;;;9.58;82.53;102632.56;5007565;28;97445;-69
2021/03/17 08:45:14;;;;;;;0.10;0.10;;;6.80;94.60;;;9.41;82.68;102625.66;5003508;28;97366;-69
2021/03/17 08:47:47;;;;;;;0.00;0.00;;;6.70;94.60;;;9.30;82.98;102621.22;5009814;28;96844;-69
2021/03/17 08:50:27;;;;;;;0.63;0.63;;;6.60;94.60;;;9.43;82.79;102626.22;5011250;28;97789;-69
2021/03/17 08:52:56;;;;;;;0.10;0.10;;;6.60;94.80;;;11.83;76.18;102629.88;5013956;28;96789;-69
2021/03/17 08:55:37;;;;;;;0.57;0.40;;;6.80;94.90;;;16.88;60.01;102620.66;5006007;28;96689;-69
2021/03/17 08:58:08;;;;;;;0.00;0.00;;;7.60;94.80;;;16.13;64.63;102621.06;5001816;28;98221;-69
2021/03/17 09:00:56;;;;;;;0.10;0.10;;;8.40;94.10;;;15.71;65.19;102621.13;5005154;28;96913;-70
2021/03/17 09:03:50;;;;;;;0.73;0.43;;;9.20;93.30;;;13.57;72.18;102623.66;5011444;28;96848;-70
2021/03/17 09:06:29;;;;;;;0.10;0.10;;;9.40;92.70;;;12.90;75.43;102627.84;5006505;28;96826;-69
2021/03/17 09:09:05;;;;;;;0.40;0.40;;;9.50;92.60;;;14.06;72.18;102628.00;5006549;28;97944;-70
2021/03/17 09:11:50;;;;;;;0.10;0.10;;;9.50;92.60;;;14.44;70.45;102623.75;5009253;28;97600;-70
2021/03/17 09:14:34;;;;;;;0.13;0.10;;;9.60;92.50;;;17.81;61.05;102626.44;5006968;28;96808;-70
2021/03/17 09:17:27;;;;;;;0.00;0.00;;;10.00;92.50;;;21.07;53.31;102632.16;4999650;28;98679;-70
2021/03/17 09:20:32;;;;;;;0.30;0.30;;;10.90;92.20;;;22.06;51.73;102621.38;5008550;28;98428;-70
2021/03/17 09:23:20;;;;;;;0.10;0.10;;;12.10;91.20;;;22.19;51.89;102609.38;5010384;28;98737;-71
2021/03/17 09:25:51;;;;;;;0.52;0.52;;;13.30;89.80;;;20.72;57.93;102611.56;5012154;28;97102;-70
2021/03/17 09:28:25;;;;;;;2.85;0.85;;;14.00;88.20;;;21.40;57.39;102611.34;5008429;28;97686;-70
2021/03/17 09:30:58;;;;;;;0.20;0.20;;;14.50;87.40;;;21.06;58.72;102613.41;5001336;28;97859;-71
2021/03/17 09:33:30;;;;;;;0.00;0.00;;;15.10;86.60;;;18.87;65.37;102601.13;5006396;28;97970;-71
2021/03/17 09:36:06;;;;;;;0.10;0.10;;;15.20;85.60;;;18.75;66.13;102612.56;5012328;28;96747;-70
2021/03/17 09:38:38;;;;;;;0.00;0.00;;;15.00;85.20;;;19.23;64.71;102608.84;5010518;28;96631;-70
2021/03/17 09:41:12;;;;;;;0.00;0.00;;;15.00;85.90;;;19.07;65.76;102606.81;5008155;28;97153;-70
2021/03/17 09:43:58;;;;;;;5.35;1.45;;;15.10;86.30;;;17.01;71.21;102608.25;5013403;28;97718;-70
2021/03/17 09:46:33;;;;;;;0.00;0.00;;;14.80;85.60;;;15.82;74.73;102611.75;5007768;28;97190;-70
2021/03/17 09:49:08;;;;;;;1.98;0.70;;;14.20;86.00;;;14.78;77.16;102611.84;5015775;28;97189;-71
2021/03/17 09:51:43;;;;;;;0.10;0.10;;;13.60;86.70;;;13.91;78.67;102608.41;5005207;28;97148;-70
2021/03/17 09:54:13;;;;;;;0.08;0.08;;;12.80;87.40;;;13.25;79.90;102617.06;5014818;28;96773;-70
2021/03/17 09:56:46;;;;;;;0.00;0.00;;;12.20;88.20;;;12.85;80.60;102620.59;5005145;28;97325;-70
2021/03/17 09:59:26;;;;;;;0.00;0.00;;;11.60;89.20;;;12.60;80.11;102617.09;5007560;28;97642;-70
2021/03/17 10:02:03;;;;;;;0.00;0.00;;;11.10;90.00;;;12.53;80.76;102617.38;5013947;28;98368;-70
2021/03/17 10:04:35;;;;;;;0.00;0.00;;;10.80;90.60;;;12.55;80.76;102620.63;4996597;28;97741;-70
2021/03/17 10:07:06;;;;;;;0.00;0.00;;;10.60;91.00;;;12.71;80.48;102622.22;5011501;28;96843;-70
2021/03/17 10:09:36;;;;;;;0.00;0.00;;;10.40;91.20;;;12.74;79.65;102618.19;5014756;28;96778;-70
2021/03/17 10:12:09;;;;;;;0.00;0.00;;;10.30;91.30;;;12.62;79.62;102620.34;5014536;28;97928;-70
2021/03/17 10:14:43;;;;;;;0.00;0.00;;;10.20;91.30;;;12.59;79.66;102604.72;5008802;28;98520;-70
2021/03/17 10:17:15;;;;;;;0.00;0.00;;;10.00;91.40;;;12.71;79.13;102613.34;5012915;28;97194;-70
2021/03/17 10:19:49;;;;;;;0.10;0.10;;;10.00;91.60;;;12.98;78.50;102605.81;5012964;28;97088;-70
2021/03/17 10:22:18;;;;;;;0.00;0.00;;;10.00;91.90;;;13.34;78.05;102599.25;5004083;28;98230;-70
2021/03/17 10:24:50;;;;;;;0.00;0.00;;;10.10;92.00;;;13.07;78.57;102596.09;5005194;28;97031;-70
2021/03/17 10:27:22;;;;;;;0.00;0.00;;;10.10;91.90;;;13.56;77.50;102597.03;5006981;28;96810;-70
2021/03/17 10:29:53;;;;;;;1.02;0.28;;;10.20;92.20;;;14.07;75.51;102608.03;5008082;28;97089;-70
2021/03/17 10:32:24;;;;;;;1.77;1.13;;;10.40;92.20;;;14.29;75.33;102611.16;5012674;28;97845;-70
2021/03/17 10:34:53;;;;;;;0.25;0.25;;;10.60;92.00;;;14.14;75.26;102608.56;5010436;28;96744;-70
2021/03/17 10:37:23;;;;;;;0.00;0.00;;;10.80;91.60;;;13.97;75.84;102603.81;5009140;28;97149;-70
2021/03/17 10:39:53;;;;;;;0.10;0.10;;;10.80;91.30;;;13.81;76.24;102607.66;5010157;28;97306;-70
2021/03/17 10:42:24;;;;;;;0.00;0.00;;;10.70;91.60;;;14.30;74.79;102606.59;5011776;28;97816;-70
2021/03/17 10:45:09;;;;;;;0.03;0.03;;;10.80;91.40;;;14.25;75.18;102604.72;5010678;28;96752;-70
2021/03/17 10:47:40;;;;;;;0.00;0.00;;;10.90;91.30;;;14.47;75.29;102605.09;5007291;28;98200;-70
2021/03/17 10:50:14;;;;;;;0.10;0.10;;;10.90;91.40;;;14.98;73.76;102598.16;5010082;28;97387;-70
2021/03/17 10:52:46;;;;;;;0.00;0.00;;;11.10;91.50;;;15.88;72.29;102603.31;5012266;28;97951;-70
2021/03/17 10:55:20;;;;;;;0.00;0.00;;;11.60;91.70;;;16.53;70.44;102596.13;5013850;28;98157;-70